sensor_id;sensor_type;location;lat;lon;timestamp;P1;durP1;ratioP1;P2;durP2;ratioP2
14373;SDS011;7270;49.004;12.066;2022-08-19T00:00:16;0.90;;;0.90;;
14373;SDS011;7270;49.004;12.066;2022-08-19T00:02:48;0.97;;;0.97;;
14373;SDS011;7270;49.004;12.066;2022-08-19T00:05:14;1.00;;;1.00;;
14373;SDS011;7270;49.004;12.066;2022-08-19T00:07:48;0.93;;;0.93;;
14373;SDS011;7270;49.004;12.066;2022-08-19T00:10:22;0.87;;;0.87;;
14373;SDS011;7270;49.004;12.066;2022-08-19T00:12:49;0.90;;;0.90;;
14373;SDS011;7270;49.004;12.066;2022-08-19T00:15:19;0.90;;;0.90;;
14373;SDS011;7270;49.004;12.066;2022-08-19T00:17:55;1.00;;;1.00;;
14373;SDS011;7270;49.004;12.066;2022-08-19T00:20:22;0.87;;;0.87;;
14373;SDS011;7270;49.004;12.066;2022-08-19T00:22:48;1.00;;;1.00;;
14373;SDS011;7270;49.004;12.066;2022-08-19T00:25:15;0.90;;;0.90;;
14373;SDS011;7270;49.004;12.066;2022-08-19T00:27:41;0.90;;;0.90;;
14373;SDS011;7270;49.004;12.066;2022-08-19T00:30:08;0.90;;;0.90;;
14373;SDS011;7270;49.004;12.066;2022-08-19T00:32:35;1.00;;;1.00;;
14373;SDS011;7270;49.004;12.066;2022-08-19T00:35:04;0.90;;;0.90;;
14373;SDS011;7270;49.004;12.066;2022-08-19T00:37:30;0.80;;;0.80;;
14373;SDS011;7270;49.004;12.066;2022-08-19T00:40:06;1.00;;;1.00;;
14373;SDS011;7270;49.004;12.066;2022-08-19T00:42:33;1.00;;;1.00;;
14373;SDS011;7270;49.004;12.066;2022-08-19T00:44:59;1.00;;;1.00;;
14373;SDS011;7270;49.004;12.066;2022-08-19T00:47:26;0.90;;;0.90;;
14373;SDS011;7270;49.004;12.066;2022-08-19T00:49:54;0.90;;;0.90;;
14373;SDS011;7270;49.004;12.066;2022-08-19T00:52:25;1.00;;;1.00;;
14373;SDS011;7270;49.004;12.066;2022-08-19T00:54:54;0.83;;;0.83;;
14373;SDS011;7270;49.004;12.066;2022-08-19T00:57:22;1.00;;;1.00;;
14373;SDS011;7270;49.004;12.066;2022-08-19T00:59:51;1.00;;;1.00;;
14373;SDS011;7270;49.004;12.066;2022-08-19T01:02:18;1.00;;;1.00;;
14373;SDS011;7270;49.004;12.066;2022-08-19T01:04:45;0.90;;;0.90;;
14373;SDS011;7270;49.004;12.066;2022-08-19T01:07:11;0.90;;;0.90;;
14373;SDS011;7270;49.004;12.066;2022-08-19T01:09:39;0.90;;;0.90;;
14373;SDS011;7270;49.004;12.066;2022-08-19T01:12:05;1.10;;;1.10;;
14373;SDS011;7270;49.004;12.066;2022-08-19T01:14:34;0.90;;;0.90;;
14373;SDS011;7270;49.004;12.066;2022-08-19T01:17:01;1.00;;;1.00;;
14373;SDS011;7270;49.004;12.066;2022-08-19T01:19:29;0.90;;;0.90;;
14373;SDS011;7270;49.004;12.066;2022-08-19T01:21:57;1.00;;;1.00;;
14373;SDS011;7270;49.004;12.066;2022-08-19T01:24:26;1.00;;;1.00;;
14373;SDS011;7270;49.004;12.066;2022-08-19T01:26:53;1.00;;;1.00;;
14373;SDS011;7270;49.004;12.066;2022-08-19T01:29:19;0.90;;;0.90;;
14373;SDS011;7270;49.004;12.066;2022-08-19T01:31:46;0.90;;;0.90;;
14373;SDS011;7270;49.004;12.066;2022-08-19T01:34:17;1.00;;;1.00;;
14373;SDS011;7270;49.004;12.066;2022-08-19T01:36:44;1.00;;;1.00;;
14373;SDS011;7270;49.004;12.066;2022-08-19T01:39:14;0.90;;;0.90;;
14373;SDS011;7270;49.004;12.066;2022-08-19T01:41:49;0.90;;;0.90;;
14373;SDS011;7270;49.004;12.066;2022-08-19T01:44:17;0.90;;;0.90;;
14373;SDS011;7270;49.004;12.066;2022-08-19T01:46:47;0.90;;;0.90;;
14373;SDS011;7270;49.004;12.066;2022-08-19T01:49:21;1.00;;;1.00;;
14373;SDS011;7270;49.004;12.066;2022-08-19T01:51:48;1.00;;;1.00;;
14373;SDS011;7270;49.004;12.066;2022-08-19T01:54:15;0.90;;;0.90;;
14373;SDS011;7270;49.004;12.066;2022-08-19T01:56:43;1.00;;;1.00;;
14373;SDS011;7270;49.004;12.066;2022-08-19T01:59:11;0.90;;;0.90;;
14373;SDS011;7270;49.004;12.066;2022-08-19T02:01:38;0.93;;;0.93;;
14373;SDS011;7270;49.004;12.066;2022-08-19T02:04:04;0.80;;;0.80;;
14373;SDS011;7270;49.004;12.066;2022-08-19T02:06:31;0.90;;;0.90;;
14373;SDS011;7270;49.004;12.066;2022-08-19T02:08:58;0.80;;;0.80;;
14373;SDS011;7270;49.004;12.066;2022-08-19T02:11:25;0.90;;;0.90;;
14373;SDS011;7270;49.004;12.066;2022-08-19T02:13:54;1.00;;;1.00;;
14373;SDS011;7270;49.004;12.066;2022-08-19T02:16:21;0.90;;;0.90;;
14373;SDS011;7270;49.004;12.066;2022-08-19T02:18:47;1.00;;;1.00;;
14373;SDS011;7270;49.004;12.066;2022-08-19T02:21:22;1.00;;;1.00;;
14373;SDS011;7270;49.004;12.066;2022-08-19T02:23:49;1.00;;;1.00;;
14373;SDS011;7270;49.004;12.066;2022-08-19T02:26:16;1.00;;;1.00;;
14373;SDS011;7270;49.004;12.066;2022-08-19T02:28:43;1.00;;;1.00;;
14373;SDS011;7270;49.004;12.066;2022-08-19T02:31:11;0.80;;;0.80;;
14373;SDS011;7270;49.004;12.066;2022-08-19T02:33:38;0.90;;;0.90;;
14373;SDS011;7270;49.004;12.066;2022-08-19T02:36:04;0.87;;;0.87;;
14373;SDS011;7270;49.004;12.066;2022-08-19T02:38:39;1.00;;;1.00;;
14373;SDS011;7270;49.004;12.066;2022-08-19T02:41:06;1.00;;;1.00;;
14373;SDS011;7270;49.004;12.066;2022-08-19T02:43:35;0.90;;;0.90;;
14373;SDS011;7270;49.004;12.066;2022-08-19T02:46:12;1.00;;;1.00;;
14373;SDS011;7270;49.004;12.066;2022-08-19T02:48:39;1.00;;;1.00;;
14373;SDS011;7270;49.004;12.066;2022-08-19T02:51:05;0.93;;;0.93;;
14373;SDS011;7270;49.004;12.066;2022-08-19T02:53:32;0.90;;;0.90;;
14373;SDS011;7270;49.004;12.066;2022-08-19T02:55:58;0.90;;;0.90;;
14373;SDS011;7270;49.004;12.066;2022-08-19T02:58:25;0.90;;;0.90;;
14373;SDS011;7270;49.004;12.066;2022-08-19T03:00:52;0.90;;;0.90;;
14373;SDS011;7270;49.004;12.066;2022-08-19T03:03:20;0.90;;;0.90;;
14373;SDS011;7270;49.004;12.066;2022-08-19T03:05:46;0.80;;;0.80;;
14373;SDS011;7270;49.004;12.066;2022-08-19T03:08:13;0.90;;;0.90;;
14373;SDS011;7270;49.004;12.066;2022-08-19T03:10:40;0.90;;;0.90;;
14373;SDS011;7270;49.004;12.066;2022-08-19T03:13:09;0.90;;;0.90;;
14373;SDS011;7270;49.004;12.066;2022-08-19T03:15:38;0.90;;;0.90;;
14373;SDS011;7270;49.004;12.066;2022-08-19T03:18:04;1.00;;;1.00;;
14373;SDS011;7270;49.004;12.066;2022-08-19T03:20:32;0.90;;;0.90;;
14373;SDS011;7270;49.004;12.066;2022-08-19T03:23:08;1.00;;;1.00;;
14373;SDS011;7270;49.004;12.066;2022-08-19T03:25:36;1.00;;;1.00;;
14373;SDS011;7270;49.004;12.066;2022-08-19T03:28:02;1.00;;;1.00;;
14373;SDS011;7270;49.004;12.066;2022-08-19T03:30:29;1.00;;;1.00;;
14373;SDS011;7270;49.004;12.066;2022-08-19T03:32:55;0.90;;;0.90;;
14373;SDS011;7270;49.004;12.066;2022-08-19T03:35:22;0.93;;;0.93;;
14373;SDS011;7270;49.004;12.066;2022-08-19T03:37:50;0.97;;;0.97;;
14373;SDS011;7270;49.004;12.066;2022-08-19T03:40:17;1.00;;;1.00;;
14373;SDS011;7270;49.004;12.066;2022-08-19T03:42:44;0.90;;;0.90;;
14373;SDS011;7270;49.004;12.066;2022-08-19T03:45:11;0.97;;;0.97;;
14373;SDS011;7270;49.004;12.066;2022-08-19T03:47:37;0.90;;;0.90;;
14373;SDS011;7270;49.004;12.066;2022-08-19T03:50:04;0.90;;;0.90;;
14373;SDS011;7270;49.004;12.066;2022-08-19T03:52:31;0.90;;;0.90;;
14373;SDS011;7270;49.004;12.066;2022-08-19T03:54:59;1.00;;;1.00;;
14373;SDS011;7270;49.004;12.066;2022-08-19T03:57:25;0.83;;;0.83;;
14373;SDS011;7270;49.004;12.066;2022-08-19T03:59:52;0.90;;;0.90;;
14373;SDS011;7270;49.004;12.066;2022-08-19T04:02:18;0.90;;;0.90;;
14373;SDS011;7270;49.004;12.066;2022-08-19T04:04:45;0.90;;;0.90;;
14373;SDS011;7270;49.004;12.066;2022-08-19T04:07:19;0.87;;;0.87;;
14373;SDS011;7270;49.004;12.066;2022-08-19T04:09:46;0.90;;;0.90;;
14373;SDS011;7270;49.004;12.066;2022-08-19T04:12:14;0.90;;;0.90;;
14373;SDS011;7270;49.004;12.066;2022-08-19T04:14:42;0.90;;;0.90;;
14373;SDS011;7270;49.004;12.066;2022-08-19T04:17:15;0.90;;;0.90;;
14373;SDS011;7270;49.004;12.066;2022-08-19T04:19:42;0.93;;;0.93;;
14373;SDS011;7270;49.004;12.066;2022-08-19T04:22:08;1.00;;;1.00;;
14373;SDS011;7270;49.004;12.066;2022-08-19T04:24:35;1.00;;;1.00;;
14373;SDS011;7270;49.004;12.066;2022-08-19T04:27:09;1.00;;;1.00;;
14373;SDS011;7270;49.004;12.066;2022-08-19T04:29:44;1.00;;;1.00;;
14373;SDS011;7270;49.004;12.066;2022-08-19T04:32:10;0.90;;;0.90;;
14373;SDS011;7270;49.004;12.066;2022-08-19T04:34:40;1.00;;;1.00;;
14373;SDS011;7270;49.004;12.066;2022-08-19T04:37:07;0.90;;;0.90;;
14373;SDS011;7270;49.004;12.066;2022-08-19T04:39:36;0.90;;;0.90;;
14373;SDS011;7270;49.004;12.066;2022-08-19T04:42:29;1.00;;;1.00;;
14373;SDS011;7270;49.004;12.066;2022-08-19T04:45:16;0.90;;;0.90;;
14373;SDS011;7270;49.004;12.066;2022-08-19T04:47:43;0.90;;;0.90;;
14373;SDS011;7270;49.004;12.066;2022-08-19T04:50:10;0.90;;;0.90;;
14373;SDS011;7270;49.004;12.066;2022-08-19T04:52:50;0.90;;;0.90;;
14373;SDS011;7270;49.004;12.066;2022-08-19T04:55:18;1.00;;;1.00;;
14373;SDS011;7270;49.004;12.066;2022-08-19T04:57:44;1.00;;;1.00;;
14373;SDS011;7270;49.004;12.066;2022-08-19T05:00:19;0.90;;;0.90;;
14373;SDS011;7270;49.004;12.066;2022-08-19T05:02:51;0.90;;;0.90;;
14373;SDS011;7270;49.004;12.066;2022-08-19T05:05:17;0.90;;;0.90;;
14373;SDS011;7270;49.004;12.066;2022-08-19T05:07:44;0.90;;;0.90;;
14373;SDS011;7270;49.004;12.066;2022-08-19T05:10:18;1.00;;;1.00;;
14373;SDS011;7270;49.004;12.066;2022-08-19T05:12:45;1.00;;;1.00;;
14373;SDS011;7270;49.004;12.066;2022-08-19T05:15:12;1.00;;;1.00;;
14373;SDS011;7270;49.004;12.066;2022-08-19T05:17:39;0.80;;;0.80;;
14373;SDS011;7270;49.004;12.066;2022-08-19T05:20:27;0.90;;;0.90;;
14373;SDS011;7270;49.004;12.066;2022-08-19T05:23:11;1.00;;;1.00;;
14373;SDS011;7270;49.004;12.066;2022-08-19T05:25:45;1.00;;;1.00;;
14373;SDS011;7270;49.004;12.066;2022-08-19T05:28:11;0.80;;;0.80;;
14373;SDS011;7270;49.004;12.066;2022-08-19T05:30:37;1.00;;;1.00;;
14373;SDS011;7270;49.004;12.066;2022-08-19T05:33:06;0.93;;;0.93;;
14373;SDS011;7270;49.004;12.066;2022-08-19T05:35:37;1.00;;;1.00;;
14373;SDS011;7270;49.004;12.066;2022-08-19T05:38:04;0.90;;;0.90;;
14373;SDS011;7270;49.004;12.066;2022-08-19T05:40:32;1.00;;;1.00;;
14373;SDS011;7270;49.004;12.066;2022-08-19T05:43:00;1.00;;;1.00;;
14373;SDS011;7270;49.004;12.066;2022-08-19T05:45:27;1.00;;;1.00;;
14373;SDS011;7270;49.004;12.066;2022-08-19T05:47:53;0.90;;;0.90;;
14373;SDS011;7270;49.004;12.066;2022-08-19T05:50:21;0.90;;;0.90;;
14373;SDS011;7270;49.004;12.066;2022-08-19T05:52:48;1.00;;;1.00;;
14373;SDS011;7270;49.004;12.066;2022-08-19T05:55:14;0.90;;;0.90;;
14373;SDS011;7270;49.004;12.066;2022-08-19T05:57:41;1.00;;;1.00;;
14373;SDS011;7270;49.004;12.066;2022-08-19T06:00:08;0.90;;;0.90;;
14373;SDS011;7270;49.004;12.066;2022-08-19T06:02:35;1.00;;;1.00;;
14373;SDS011;7270;49.004;12.066;2022-08-19T06:05:02;1.00;;;1.00;;
14373;SDS011;7270;49.004;12.066;2022-08-19T06:07:32;0.90;;;0.90;;
14373;SDS011;7270;49.004;12.066;2022-08-19T06:09:59;1.00;;;1.00;;
14373;SDS011;7270;49.004;12.066;2022-08-19T06:12:25;1.00;;;1.00;;
14373;SDS011;7270;49.004;12.066;2022-08-19T06:14:54;1.00;;;1.00;;
14373;SDS011;7270;49.004;12.066;2022-08-19T06:17:20;0.87;;;0.87;;
14373;SDS011;7270;49.004;12.066;2022-08-19T06:19:47;0.93;;;0.93;;
14373;SDS011;7270;49.004;12.066;2022-08-19T06:22:14;0.90;;;0.90;;
14373;SDS011;7270;49.004;12.066;2022-08-19T06:24:42;1.00;;;1.00;;
14373;SDS011;7270;49.004;12.066;2022-08-19T06:27:09;1.00;;;1.00;;
14373;SDS011;7270;49.004;12.066;2022-08-19T06:29:35;0.90;;;0.90;;
14373;SDS011;7270;49.004;12.066;2022-08-19T06:32:02;1.00;;;1.00;;
14373;SDS011;7270;49.004;12.066;2022-08-19T06:34:30;0.90;;;0.90;;
14373;SDS011;7270;49.004;12.066;2022-08-19T06:36:57;1.00;;;1.00;;
14373;SDS011;7270;49.004;12.066;2022-08-19T06:39:27;1.00;;;1.00;;
14373;SDS011;7270;49.004;12.066;2022-08-19T06:41:59;1.00;;;1.00;;
14373;SDS011;7270;49.004;12.066;2022-08-19T06:44:36;1.00;;;1.00;;
14373;SDS011;7270;49.004;12.066;2022-08-19T06:47:05;1.33;;;1.23;;
14373;SDS011;7270;49.004;12.066;2022-08-19T06:49:32;1.10;;;1.10;;
14373;SDS011;7270;49.004;12.066;2022-08-19T06:51:59;1.10;;;1.10;;
14373;SDS011;7270;49.004;12.066;2022-08-19T06:54:26;1.00;;;1.00;;
14373;SDS011;7270;49.004;12.066;2022-08-19T06:56:53;1.20;;;1.20;;
14373;SDS011;7270;49.004;12.066;2022-08-19T06:59:23;1.00;;;1.00;;
14373;SDS011;7270;49.004;12.066;2022-08-19T07:01:53;1.13;;;1.13;;
14373;SDS011;7270;49.004;12.066;2022-08-19T07:04:20;1.23;;;1.20;;
14373;SDS011;7270;49.004;12.066;2022-08-19T07:06:47;1.20;;;1.20;;
14373;SDS011;7270;49.004;12.066;2022-08-19T07:09:15;1.00;;;1.00;;
14373;SDS011;7270;49.004;12.066;2022-08-19T07:11:43;1.13;;;1.13;;
14373;SDS011;7270;49.004;12.066;2022-08-19T07:14:10;1.20;;;1.20;;
14373;SDS011;7270;49.004;12.066;2022-08-19T07:16:38;1.10;;;1.10;;
14373;SDS011;7270;49.004;12.066;2022-08-19T07:19:16;1.20;;;1.20;;
14373;SDS011;7270;49.004;12.066;2022-08-19T07:21:43;1.10;;;1.10;;
14373;SDS011;7270;49.004;12.066;2022-08-19T07:24:09;1.10;;;1.10;;
14373;SDS011;7270;49.004;12.066;2022-08-19T07:26:43;1.07;;;1.07;;
14373;SDS011;7270;49.004;12.066;2022-08-19T07:29:10;1.10;;;1.10;;
14373;SDS011;7270;49.004;12.066;2022-08-19T07:31:37;1.03;;;1.03;;
14373;SDS011;7270;49.004;12.066;2022-08-19T07:34:09;1.00;;;1.00;;
14373;SDS011;7270;49.004;12.066;2022-08-19T07:36:44;1.00;;;1.00;;
14373;SDS011;7270;49.004;12.066;2022-08-19T07:39:20;1.10;;;1.10;;
14373;SDS011;7270;49.004;12.066;2022-08-19T07:41:48;1.00;;;1.00;;
14373;SDS011;7270;49.004;12.066;2022-08-19T07:44:15;1.10;;;1.10;;
14373;SDS011;7270;49.004;12.066;2022-08-19T07:46:52;1.10;;;1.10;;
14373;SDS011;7270;49.004;12.066;2022-08-19T07:49:20;1.10;;;1.10;;
14373;SDS011;7270;49.004;12.066;2022-08-19T07:51:49;1.03;;;1.03;;
14373;SDS011;7270;49.004;12.066;2022-08-19T07:54:17;1.10;;;1.10;;
14373;SDS011;7270;49.004;12.066;2022-08-19T07:56:43;0.90;;;0.90;;
14373;SDS011;7270;49.004;12.066;2022-08-19T07:59:09;1.07;;;1.07;;
14373;SDS011;7270;49.004;12.066;2022-08-19T08:01:37;1.00;;;1.00;;
14373;SDS011;7270;49.004;12.066;2022-08-19T08:04:05;1.10;;;1.10;;
14373;SDS011;7270;49.004;12.066;2022-08-19T08:06:58;1.10;;;1.10;;
14373;SDS011;7270;49.004;12.066;2022-08-19T08:09:43;1.00;;;1.00;;
14373;SDS011;7270;49.004;12.066;2022-08-19T08:12:11;1.00;;;1.00;;
14373;SDS011;7270;49.004;12.066;2022-08-19T08:14:41;1.00;;;1.00;;
14373;SDS011;7270;49.004;12.066;2022-08-19T08:17:10;0.90;;;0.90;;
14373;SDS011;7270;49.004;12.066;2022-08-19T08:19:37;1.00;;;1.00;;
14373;SDS011;7270;49.004;12.066;2022-08-19T08:22:07;1.00;;;1.00;;
14373;SDS011;7270;49.004;12.066;2022-08-19T08:24:54;0.90;;;0.90;;
14373;SDS011;7270;49.004;12.066;2022-08-19T08:27:23;1.00;;;1.00;;
14373;SDS011;7270;49.004;12.066;2022-08-19T08:29:49;1.00;;;1.00;;
14373;SDS011;7270;49.004;12.066;2022-08-19T08:32:16;1.00;;;1.00;;
14373;SDS011;7270;49.004;12.066;2022-08-19T08:34:42;0.93;;;0.93;;
14373;SDS011;7270;49.004;12.066;2022-08-19T08:37:17;1.00;;;1.00;;
14373;SDS011;7270;49.004;12.066;2022-08-19T08:39:44;1.10;;;1.10;;
14373;SDS011;7270;49.004;12.066;2022-08-19T08:42:11;1.00;;;1.00;;
14373;SDS011;7270;49.004;12.066;2022-08-19T08:44:43;1.00;;;1.00;;
14373;SDS011;7270;49.004;12.066;2022-08-19T08:47:16;1.03;;;1.03;;
14373;SDS011;7270;49.004;12.066;2022-08-19T08:49:44;1.00;;;1.00;;
14373;SDS011;7270;49.004;12.066;2022-08-19T08:52:13;1.00;;;1.00;;
14373;SDS011;7270;49.004;12.066;2022-08-19T08:54:44;1.10;;;1.10;;
14373;SDS011;7270;49.004;12.066;2022-08-19T08:57:12;1.10;;;1.10;;
14373;SDS011;7270;49.004;12.066;2022-08-19T08:59:40;1.10;;;1.10;;
14373;SDS011;7270;49.004;12.066;2022-08-19T09:02:07;1.00;;;1.00;;
14373;SDS011;7270;49.004;12.066;2022-08-19T09:04:34;0.93;;;0.93;;
14373;SDS011;7270;49.004;12.066;2022-08-19T09:07:06;0.90;;;0.90;;
14373;SDS011;7270;49.004;12.066;2022-08-19T09:09:37;0.90;;;0.90;;
14373;SDS011;7270;49.004;12.066;2022-08-19T09:12:07;1.00;;;1.00;;
14373;SDS011;7270;49.004;12.066;2022-08-19T09:14:38;1.00;;;1.00;;
14373;SDS011;7270;49.004;12.066;2022-08-19T09:17:07;1.10;;;1.10;;
14373;SDS011;7270;49.004;12.066;2022-08-19T09:19:34;1.00;;;1.00;;
14373;SDS011;7270;49.004;12.066;2022-08-19T09:22:00;0.90;;;0.90;;
14373;SDS011;7270;49.004;12.066;2022-08-19T09:24:30;1.00;;;1.00;;
14373;SDS011;7270;49.004;12.066;2022-08-19T09:26:56;1.10;;;1.10;;
14373;SDS011;7270;49.004;12.066;2022-08-19T09:29:24;1.10;;;1.10;;
14373;SDS011;7270;49.004;12.066;2022-08-19T09:31:50;1.10;;;1.10;;
14373;SDS011;7270;49.004;12.066;2022-08-19T09:34:17;1.10;;;1.10;;
14373;SDS011;7270;49.004;12.066;2022-08-19T09:36:44;1.40;;;1.30;;
14373;SDS011;7270;49.004;12.066;2022-08-19T09:39:11;1.40;;;1.30;;
14373;SDS011;7270;49.004;12.066;2022-08-19T09:41:37;1.50;;;1.40;;
14373;SDS011;7270;49.004;12.066;2022-08-19T09:44:03;1.40;;;1.30;;
14373;SDS011;7270;49.004;12.066;2022-08-19T09:46:31;1.37;;;1.27;;
14373;SDS011;7270;49.004;12.066;2022-08-19T09:48:58;1.00;;;1.00;;
14373;SDS011;7270;49.004;12.066;2022-08-19T09:51:32;1.10;;;1.10;;
14373;SDS011;7270;49.004;12.066;2022-08-19T09:53:59;1.40;;;1.30;;
14373;SDS011;7270;49.004;12.066;2022-08-19T09:56:34;1.10;;;1.10;;
14373;SDS011;7270;49.004;12.066;2022-08-19T09:59:01;1.10;;;1.10;;
14373;SDS011;7270;49.004;12.066;2022-08-19T10:01:29;1.03;;;1.03;;
14373;SDS011;7270;49.004;12.066;2022-08-19T10:03:57;1.10;;;1.10;;
14373;SDS011;7270;49.004;12.066;2022-08-19T10:06:28;1.00;;;1.00;;
14373;SDS011;7270;49.004;12.066;2022-08-19T10:08:57;1.10;;;1.10;;
14373;SDS011;7270;49.004;12.066;2022-08-19T10:11:24;1.10;;;1.10;;
14373;SDS011;7270;49.004;12.066;2022-08-19T10:13:51;1.10;;;1.10;;
14373;SDS011;7270;49.004;12.066;2022-08-19T10:16:19;1.10;;;1.10;;
14373;SDS011;7270;49.004;12.066;2022-08-19T10:18:47;1.20;;;1.20;;
14373;SDS011;7270;49.004;12.066;2022-08-19T10:21:16;1.00;;;1.00;;
14373;SDS011;7270;49.004;12.066;2022-08-19T10:23:43;1.10;;;1.10;;
14373;SDS011;7270;49.004;12.066;2022-08-19T10:26:11;1.10;;;1.10;;
14373;SDS011;7270;49.004;12.066;2022-08-19T10:28:37;1.00;;;1.00;;
14373;SDS011;7270;49.004;12.066;2022-08-19T10:31:04;1.00;;;1.00;;
14373;SDS011;7270;49.004;12.066;2022-08-19T10:33:31;1.10;;;1.10;;
14373;SDS011;7270;49.004;12.066;2022-08-19T10:35:58;1.07;;;1.07;;
14373;SDS011;7270;49.004;12.066;2022-08-19T10:38:26;1.10;;;1.10;;
14373;SDS011;7270;49.004;12.066;2022-08-19T10:40:53;1.03;;;1.03;;
14373;SDS011;7270;49.004;12.066;2022-08-19T10:43:20;1.10;;;1.10;;
14373;SDS011;7270;49.004;12.066;2022-08-19T10:45:48;1.10;;;1.10;;
14373;SDS011;7270;49.004;12.066;2022-08-19T10:48:14;1.10;;;1.10;;
14373;SDS011;7270;49.004;12.066;2022-08-19T10:50:41;1.17;;;1.17;;
14373;SDS011;7270;49.004;12.066;2022-08-19T10:53:24;1.20;;;1.20;;
14373;SDS011;7270;49.004;12.066;2022-08-19T10:55:59;1.10;;;1.10;;
14373;SDS011;7270;49.004;12.066;2022-08-19T10:58:43;1.20;;;1.20;;
14373;SDS011;7270;49.004;12.066;2022-08-19T11:01:09;1.00;;;1.00;;
14373;SDS011;7270;49.004;12.066;2022-08-19T11:03:36;1.20;;;1.20;;
14373;SDS011;7270;49.004;12.066;2022-08-19T11:06:03;1.30;;;1.20;;
14373;SDS011;7270;49.004;12.066;2022-08-19T11:08:30;1.30;;;1.20;;
14373;SDS011;7270;49.004;12.066;2022-08-19T11:10:59;1.13;;;1.13;;
14373;SDS011;7270;49.004;12.066;2022-08-19T11:13:26;1.20;;;1.20;;
14373;SDS011;7270;49.004;12.066;2022-08-19T11:15:57;1.13;;;1.13;;
14373;SDS011;7270;49.004;12.066;2022-08-19T11:18:23;1.30;;;1.20;;
14373;SDS011;7270;49.004;12.066;2022-08-19T11:20:50;1.20;;;1.20;;
14373;SDS011;7270;49.004;12.066;2022-08-19T11:23:17;1.10;;;1.10;;
14373;SDS011;7270;49.004;12.066;2022-08-19T11:25:44;1.10;;;1.10;;
14373;SDS011;7270;49.004;12.066;2022-08-19T11:28:10;1.10;;;1.10;;
14373;SDS011;7270;49.004;12.066;2022-08-19T11:30:38;1.10;;;1.10;;
14373;SDS011;7270;49.004;12.066;2022-08-19T11:33:13;1.10;;;1.10;;
14373;SDS011;7270;49.004;12.066;2022-08-19T11:35:40;1.10;;;1.10;;
14373;SDS011;7270;49.004;12.066;2022-08-19T11:38:06;1.10;;;1.10;;
14373;SDS011;7270;49.004;12.066;2022-08-19T11:40:32;1.40;;;1.30;;
14373;SDS011;7270;49.004;12.066;2022-08-19T11:43:07;1.20;;;1.20;;
14373;SDS011;7270;49.004;12.066;2022-08-19T11:45:34;1.40;;;1.30;;
14373;SDS011;7270;49.004;12.066;2022-08-19T11:48:03;1.20;;;1.20;;
14373;SDS011;7270;49.004;12.066;2022-08-19T11:50:37;1.40;;;1.30;;
14373;SDS011;7270;49.004;12.066;2022-08-19T11:53:06;1.20;;;1.20;;
14373;SDS011;7270;49.004;12.066;2022-08-19T11:55:32;1.47;;;1.37;;
14373;SDS011;7270;49.004;12.066;2022-08-19T11:58:07;1.60;;;1.50;;
14373;SDS011;7270;49.004;12.066;2022-08-19T12:00:34;1.40;;;1.30;;
14373;SDS011;7270;49.004;12.066;2022-08-19T12:03:02;1.50;;;1.40;;
14373;SDS011;7270;49.004;12.066;2022-08-19T12:05:29;1.20;;;1.20;;
14373;SDS011;7270;49.004;12.066;2022-08-19T12:07:55;1.33;;;1.23;;
14373;SDS011;7270;49.004;12.066;2022-08-19T12:10:22;1.60;;;1.50;;
14373;SDS011;7270;49.004;12.066;2022-08-19T12:12:48;2.20;;;2.10;;
14373;SDS011;7270;49.004;12.066;2022-08-19T12:15:15;1.90;;;1.80;;
14373;SDS011;7270;49.004;12.066;2022-08-19T12:17:42;2.00;;;1.90;;
14373;SDS011;7270;49.004;12.066;2022-08-19T12:20:18;1.90;;;1.80;;
14373;SDS011;7270;49.004;12.066;2022-08-19T12:22:45;2.10;;;2.00;;
14373;SDS011;7270;49.004;12.066;2022-08-19T12:25:11;2.40;;;2.30;;
14373;SDS011;7270;49.004;12.066;2022-08-19T12:27:40;2.50;;;2.40;;
14373;SDS011;7270;49.004;12.066;2022-08-19T12:30:08;2.00;;;1.90;;
14373;SDS011;7270;49.004;12.066;2022-08-19T12:32:35;2.50;;;2.40;;
14373;SDS011;7270;49.004;12.066;2022-08-19T12:35:01;1.80;;;1.70;;
14373;SDS011;7270;49.004;12.066;2022-08-19T12:37:29;1.70;;;1.60;;
14373;SDS011;7270;49.004;12.066;2022-08-19T12:40:03;1.30;;;1.20;;
14373;SDS011;7270;49.004;12.066;2022-08-19T12:42:37;1.30;;;1.20;;
14373;SDS011;7270;49.004;12.066;2022-08-19T12:45:07;1.37;;;1.27;;
14373;SDS011;7270;49.004;12.066;2022-08-19T12:47:34;1.10;;;1.10;;
14373;SDS011;7270;49.004;12.066;2022-08-19T12:50:00;1.20;;;1.20;;
14373;SDS011;7270;49.004;12.066;2022-08-19T12:52:30;1.30;;;1.20;;
14373;SDS011;7270;49.004;12.066;2022-08-19T12:54:57;1.20;;;1.20;;
14373;SDS011;7270;49.004;12.066;2022-08-19T12:57:24;1.10;;;1.10;;
14373;SDS011;7270;49.004;12.066;2022-08-19T12:59:51;1.20;;;1.20;;
14373;SDS011;7270;49.004;12.066;2022-08-19T13:02:18;1.07;;;1.07;;
14373;SDS011;7270;49.004;12.066;2022-08-19T13:04:46;1.07;;;1.07;;
14373;SDS011;7270;49.004;12.066;2022-08-19T13:07:12;1.00;;;1.00;;
14373;SDS011;7270;49.004;12.066;2022-08-19T13:09:40;0.90;;;0.90;;
14373;SDS011;7270;49.004;12.066;2022-08-19T13:12:10;0.90;;;0.90;;
14373;SDS011;7270;49.004;12.066;2022-08-19T13:14:38;0.90;;;0.90;;
14373;SDS011;7270;49.004;12.066;2022-08-19T13:17:05;0.80;;;0.80;;
14373;SDS011;7270;49.004;12.066;2022-08-19T13:19:31;0.90;;;0.90;;
14373;SDS011;7270;49.004;12.066;2022-08-19T13:21:58;0.90;;;0.90;;
14373;SDS011;7270;49.004;12.066;2022-08-19T13:24:24;1.00;;;1.00;;
14373;SDS011;7270;49.004;12.066;2022-08-19T13:26:59;0.90;;;0.90;;
14373;SDS011;7270;49.004;12.066;2022-08-19T13:29:26;0.90;;;0.90;;
14373;SDS011;7270;49.004;12.066;2022-08-19T13:32:09;0.90;;;0.90;;
14373;SDS011;7270;49.004;12.066;2022-08-19T13:34:53;1.00;;;1.00;;
14373;SDS011;7270;49.004;12.066;2022-08-19T13:37:20;1.00;;;1.00;;
14373;SDS011;7270;49.004;12.066;2022-08-19T13:40:06;1.00;;;1.00;;
14373;SDS011;7270;49.004;12.066;2022-08-19T13:42:51;1.00;;;1.00;;
14373;SDS011;7270;49.004;12.066;2022-08-19T13:45:20;1.00;;;1.00;;
14373;SDS011;7270;49.004;12.066;2022-08-19T13:47:47;1.00;;;1.00;;
14373;SDS011;7270;49.004;12.066;2022-08-19T13:50:14;1.00;;;1.00;;
14373;SDS011;7270;49.004;12.066;2022-08-19T13:52:41;1.00;;;1.00;;
14373;SDS011;7270;49.004;12.066;2022-08-19T13:55:08;1.00;;;1.00;;
14373;SDS011;7270;49.004;12.066;2022-08-19T13:57:35;1.00;;;1.00;;
14373;SDS011;7270;49.004;12.066;2022-08-19T14:00:06;0.90;;;0.90;;
14373;SDS011;7270;49.004;12.066;2022-08-19T14:02:33;1.00;;;1.00;;
14373;SDS011;7270;49.004;12.066;2022-08-19T14:04:59;0.90;;;0.90;;
14373;SDS011;7270;49.004;12.066;2022-08-19T14:07:25;1.00;;;1.00;;
14373;SDS011;7270;49.004;12.066;2022-08-19T14:09:52;0.90;;;0.90;;
14373;SDS011;7270;49.004;12.066;2022-08-19T14:12:18;1.00;;;1.00;;
14373;SDS011;7270;49.004;12.066;2022-08-19T14:14:52;0.90;;;0.90;;
14373;SDS011;7270;49.004;12.066;2022-08-19T14:17:20;1.10;;;1.10;;
14373;SDS011;7270;49.004;12.066;2022-08-19T14:19:46;1.00;;;1.00;;
14373;SDS011;7270;49.004;12.066;2022-08-19T14:22:13;1.00;;;1.00;;
14373;SDS011;7270;49.004;12.066;2022-08-19T14:24:47;1.00;;;1.00;;
14373;SDS011;7270;49.004;12.066;2022-08-19T14:27:15;1.00;;;1.00;;
14373;SDS011;7270;49.004;12.066;2022-08-19T14:29:50;1.00;;;1.00;;
14373;SDS011;7270;49.004;12.066;2022-08-19T14:32:16;0.90;;;0.90;;
14373;SDS011;7270;49.004;12.066;2022-08-19T14:34:44;1.00;;;1.00;;
14373;SDS011;7270;49.004;12.066;2022-08-19T14:37:11;1.00;;;1.00;;
14373;SDS011;7270;49.004;12.066;2022-08-19T14:39:39;1.00;;;1.00;;
14373;SDS011;7270;49.004;12.066;2022-08-19T14:42:06;1.00;;;1.00;;
14373;SDS011;7270;49.004;12.066;2022-08-19T14:44:33;1.00;;;1.00;;
14373;SDS011;7270;49.004;12.066;2022-08-19T14:46:59;0.90;;;0.90;;
14373;SDS011;7270;49.004;12.066;2022-08-19T14:49:26;1.00;;;1.00;;
14373;SDS011;7270;49.004;12.066;2022-08-19T14:51:54;1.07;;;1.07;;
14373;SDS011;7270;49.004;12.066;2022-08-19T14:54:21;1.10;;;1.10;;
14373;SDS011;7270;49.004;12.066;2022-08-19T14:56:48;1.00;;;1.00;;